Terminal Aerodrome Forecast
Issued by NWS

Home | Current Version | Previous Version | Text Only | Print | Product List | Glossary On
Versions: 1 2 3 4 5 6 7 8 9 10 11 12
000
FTUS45 KCYS 231133
TAFRWL
TAF
KRWL 231133Z 2312/2412 24006KT P6SM SCT150
     FM231800 25011G19KT P6SM SCT100
     FM232300 24009KT P6SM VCSH BKN100
     FM240600 25008KT P6SM BKN200=

USA.gov is the U.S. government's official web portal to all federal, state and local government web resources and services.